Time;durP1;ratioP1;P1;durP2;ratioP2;P2;SDS_P1;SDS_P2;PMS_P1;PMS_P2;Temp;Humidity;BMP_temperature;BMP_pressure;BME280_temperature;BME280_humidity;BME280_pressure;Samples;Min_cycle;Max_cycle;Signal;HPM_P1;HPM_P2
2023/02/02 00:01:40;;;;;;;1.63;0.70;;;19.80;50.90;;;;;;5017850;28;20041;-62
2023/02/02 00:04:06;;;;;;;0.85;0.50;;;19.80;50.90;;;;;;5017377;28;20041;-62
2023/02/02 00:06:32;;;;;;;1.90;0.80;;;19.80;50.80;;;;;;5020252;28;20029;-62
2023/02/02 00:09:01;;;;;;;1.45;0.70;;;19.70;50.80;;;;;;5020647;28;20164;-62
2023/02/02 00:11:27;;;;;;;0.77;0.55;;;19.80;51.40;;;;;;5017658;28;20148;-63
2023/02/02 00:13:53;;;;;;;1.92;0.80;;;19.70;50.80;;;;;;5031711;28;20038;-62
2023/02/02 00:16:25;;;;;;;1.48;0.70;;;19.70;50.80;;;;;;5018250;28;20108;-62
2023/02/02 00:19:01;;;;;;;1.08;0.68;;;19.70;50.80;;;;;;5022832;28;20140;-63
2023/02/02 00:21:27;;;;;;;1.63;0.82;;;19.70;50.80;;;;;;5018153;28;20117;-62
2023/02/02 00:23:53;;;;;;;1.25;0.60;;;19.70;50.80;;;;;;5018570;28;20029;-62
2023/02/02 00:26:19;;;;;;;1.63;1.02;;;19.70;50.80;;;;;;5016385;28;20049;-62
2023/02/02 00:28:45;;;;;;;2.25;0.90;;;19.70;50.80;;;;;;5019353;28;20141;-62
2023/02/02 00:31:10;;;;;;;1.73;0.75;;;19.60;50.80;;;;;;5018122;28;20109;-63
2023/02/02 00:33:36;;;;;;;1.58;0.75;;;19.60;50.80;;;;;;5021070;28;20022;-63
2023/02/02 00:36:02;;;;;;;1.05;0.60;;;19.60;50.70;;;;;;5021213;28;20108;-63
2023/02/02 00:38:29;;;;;;;1.48;0.73;;;19.60;50.80;;;;;;5016496;28;20025;-63
2023/02/02 00:40:55;;;;;;;1.90;0.80;;;19.60;50.80;;;;;;5019009;28;20025;-63
2023/02/02 00:43:20;;;;;;;1.45;0.80;;;19.60;50.80;;;;;;5020670;28;20044;-62
2023/02/02 00:45:47;;;;;;;0.98;0.50;;;19.60;50.80;;;;;;5018812;28;20048;-63
2023/02/02 00:48:12;;;;;;;1.80;0.70;;;19.60;50.80;;;;;;5020185;28;20396;-63
2023/02/02 00:50:38;;;;;;;1.02;0.70;;;19.60;50.80;;;;;;5019720;28;20101;-64
2023/02/02 00:53:04;;;;;;;1.67;0.70;;;19.60;50.80;;;;;;5019139;28;20033;-63
2023/02/02 00:55:29;;;;;;;1.42;0.80;;;19.50;50.70;;;;;;5019712;28;20500;-64
2023/02/02 00:57:55;;;;;;;1.17;0.60;;;19.50;50.70;;;;;;5022762;28;20026;-63
2023/02/02 01:00:23;;;;;;;0.90;0.60;;;19.50;50.70;;;;;;5015928;28;20033;-62
2023/02/02 01:02:50;;;;;;;1.20;0.70;;;19.50;50.70;;;;;;5019486;28;20432;-62
2023/02/02 01:05:16;;;;;;;1.00;0.60;;;19.50;50.80;;;;;;5021128;28;20017;-62
2023/02/02 01:07:42;;;;;;;1.20;0.50;;;19.50;50.80;;;;;;5019137;28;20116;-64
2023/02/02 01:10:12;;;;;;;1.00;0.60;;;19.50;50.80;;;;;;5018067;28;20093;-62
2023/02/02 01:12:38;;;;;;;1.20;0.68;;;19.50;50.80;;;;;;5020860;28;20049;-64
2023/02/02 01:15:05;;;;;;;0.95;0.63;;;19.50;50.80;;;;;;5017234;28;20093;-62
2023/02/02 01:17:31;;;;;;;1.60;0.63;;;19.40;50.70;;;;;;5021239;28;20422;-64
2023/02/02 01:19:56;;;;;;;1.40;0.73;;;19.40;50.80;;;;;;5019374;28;20038;-63
2023/02/02 01:22:22;;;;;;;1.15;0.70;;;19.40;50.70;;;;;;5019217;28;20071;-63
2023/02/02 01:24:47;;;;;;;0.85;0.60;;;19.40;50.70;;;;;;5021606;28;20436;-62
2023/02/02 01:27:13;;;;;;;1.40;0.60;;;19.40;50.70;;;;;;5017370;28;20041;-63
2023/02/02 01:29:39;;;;;;;1.33;0.60;;;19.40;50.70;;;;;;5022980;28;20128;-62
2023/02/02 01:32:04;;;;;;;1.08;0.60;;;19.40;50.70;;;;;;5037935;28;20018;-62
2023/02/02 01:34:30;;;;;;;1.13;0.55;;;19.40;50.70;;;;;;5020122;28;20112;-63
2023/02/02 01:36:56;;;;;;;1.73;0.70;;;19.40;50.80;;;;;;5024375;28;20056;-63
2023/02/02 01:39:21;;;;;;;1.40;0.80;;;19.40;50.70;;;;;;5023717;28;20053;-63
2023/02/02 01:41:47;;;;;;;0.68;0.50;;;19.40;50.80;;;;;;5020598;28;20389;-64
2023/02/02 01:44:50;;;;;;;0.80;0.60;;;19.30;50.70;;;;;;5024790;28;20342;-63
2023/02/02 01:47:22;;;;;;;1.55;0.70;;;19.30;50.80;;;;;;5020410;28;20368;-63
2023/02/02 01:49:47;;;;;;;1.02;0.63;;;19.30;50.80;;;;;;5023900;28;20116;-63
2023/02/02 01:52:17;;;;;;;1.23;0.60;;;19.30;50.80;;;;;;5022825;28;20108;-63
2023/02/02 01:54:52;;;;;;;1.13;0.60;;;19.30;50.80;;;;;;5020319;28;20025;-63
2023/02/02 01:57:32;;;;;;;0.73;0.60;;;19.30;50.80;;;;;;5022964;28;20030;-63
2023/02/02 02:00:01;;;;;;;1.20;0.80;;;19.30;50.80;;;;;;5023246;28;20039;-63
2023/02/02 02:02:29;;;;;;;1.35;0.80;;;19.30;50.80;;;;;;5021922;28;20113;-63
2023/02/02 02:04:55;;;;;;;1.17;0.60;;;19.30;50.80;;;;;;5020563;28;20029;-64
2023/02/02 02:07:22;;;;;;;1.08;0.60;;;19.30;50.80;;;;;;5030533;28;20032;-64
2023/02/02 02:09:48;;;;;;;1.40;0.80;;;19.20;50.70;;;;;;5020922;28;20026;-63
2023/02/02 02:12:15;;;;;;;1.50;0.70;;;19.20;50.80;;;;;;5020398;28;20449;-63
2023/02/02 02:17:37;;;;;;;0.88;0.70;;;19.20;50.80;;;;;;5021662;28;20437;-63
2023/02/02 02:27:11;;;;;;;0.65;0.50;;;19.20;50.80;;;;;;5020138;28;20033;-63
2023/02/02 02:29:53;;;;;;;0.80;0.60;;;19.20;50.80;;;;;;5025256;28;20591;-63
2023/02/02 02:32:42;;;;;;;0.93;0.60;;;19.20;50.80;;;;;;5021196;28;20127;-63
2023/02/02 02:35:13;;;;;;;1.60;0.70;;;19.20;50.80;;;;;;5021939;28;20018;-63
2023/02/02 02:37:47;;;;;;;0.93;0.60;;;19.20;50.90;;;;;;5025836;28;20022;-64
2023/02/02 02:40:25;;;;;;;0.95;0.60;;;19.20;50.80;;;;;;5018678;28;20029;-63
2023/02/02 02:43:15;;;;;;;1.02;0.50;;;19.10;50.80;;;;;;5020939;28;20112;-63
2023/02/02 02:45:43;;;;;;;0.98;0.57;;;19.10;50.90;;;;;;5020836;28;20018;-63
2023/02/02 02:48:09;;;;;;;1.10;0.70;;;19.20;50.90;;;;;;5021950;28;20493;-63
2023/02/02 02:50:36;;;;;;;1.05;0.50;;;19.10;50.90;;;;;;5020710;28;20405;-64
2023/02/02 02:53:11;;;;;;;0.73;0.55;;;19.10;50.90;;;;;;5022825;28;20393;-63
2023/02/02 02:55:51;;;;;;;1.05;0.60;;;19.10;50.90;;;;;;5020291;28;20462;-63
2023/02/02 02:58:31;;;;;;;0.90;0.60;;;19.10;50.90;;;;;;5022205;28;20022;-63
2023/02/02 03:01:27;;;;;;;1.00;0.60;;;19.10;51.00;;;;;;5020694;28;20075;-64
2023/02/02 03:04:01;;;;;;;0.82;0.50;;;19.10;50.90;;;;;;5020815;28;20125;-63
2023/02/02 03:06:41;;;;;;;1.35;0.70;;;19.00;50.90;;;;;;5019124;28;20438;-65
2023/02/02 03:09:11;;;;;;;1.27;0.70;;;19.10;51.00;;;;;;5021286;28;20037;-63
2023/02/02 03:11:37;;;;;;;0.63;0.50;;;19.00;50.90;;;;;;5020118;28;20155;-63
2023/02/02 03:14:03;;;;;;;1.25;0.70;;;19.00;50.90;;;;;;5019448;28;20183;-64
2023/02/02 03:16:29;;;;;;;0.88;0.52;;;19.00;50.90;;;;;;5023001;28;20021;-64
2023/02/02 03:18:55;;;;;;;0.73;0.40;;;19.00;51.00;;;;;;5018171;28;20135;-63
2023/02/02 03:21:21;;;;;;;1.13;0.50;;;19.00;51.00;;;;;;5022664;28;20037;-64
2023/02/02 03:23:47;;;;;;;1.00;0.50;;;19.00;51.00;;;;;;5022973;28;20048;-64
2023/02/02 03:26:13;;;;;;;0.73;0.50;;;19.00;51.00;;;;;;5018118;28;20034;-63
2023/02/02 03:28:39;;;;;;;1.08;0.70;;;19.00;51.00;;;;;;5019939;28;20084;-63
2023/02/02 03:31:05;;;;;;;0.88;0.45;;;19.00;51.00;;;;;;5017618;28;20075;-63
2023/02/02 03:33:34;;;;;;;0.85;0.60;;;19.00;51.50;;;;;;5022993;28;20018;-63
2023/02/02 03:35:59;;;;;;;1.10;0.60;;;19.00;51.10;;;;;;5020191;28;20026;-63
2023/02/02 03:38:25;;;;;;;1.25;0.63;;;18.90;51.00;;;;;;5020732;28;20118;-62
2023/02/02 03:40:51;;;;;;;0.90;0.60;;;18.90;51.00;;;;;;5018000;28;20092;-63
2023/02/02 03:43:23;;;;;;;0.70;0.50;;;18.90;51.00;;;;;;5036986;28;20034;-63
2023/02/02 03:46:00;;;;;;;0.68;0.50;;;18.90;51.00;;;;;;5021134;28;20037;-63
2023/02/02 03:48:26;;;;;;;0.70;0.50;;;18.90;51.00;;;;;;5019950;28;20113;-64
2023/02/02 03:50:52;;;;;;;0.75;0.47;;;18.90;51.10;;;;;;5016823;28;20032;-63
2023/02/02 03:53:18;;;;;;;0.90;0.60;;;18.90;51.00;;;;;;5018309;28;20030;-64
2023/02/02 03:55:43;;;;;;;1.02;0.52;;;18.90;51.10;;;;;;5021739;28;20026;-63
2023/02/02 03:58:09;;;;;;;0.80;0.60;;;18.90;51.10;;;;;;5021096;28;20034;-63
2023/02/02 04:00:35;;;;;;;0.75;0.50;;;18.90;51.10;;;;;;5020964;28;20120;-63
2023/02/02 04:03:01;;;;;;;0.93;0.50;;;18.90;51.10;;;;;;5020611;28;20581;-63
2023/02/02 04:05:27;;;;;;;0.77;0.50;;;18.90;51.10;;;;;;5020127;28;20345;-63
2023/02/02 04:07:52;;;;;;;0.70;0.45;;;18.90;51.20;;;;;;5019181;28;20140;-63
2023/02/02 04:10:18;;;;;;;0.98;0.57;;;18.90;51.20;;;;;;5018667;28;20116;-64
2023/02/02 04:12:44;;;;;;;0.70;0.50;;;18.90;51.20;;;;;;5019129;28;20482;-62
2023/02/02 04:15:10;;;;;;;1.08;0.60;;;18.90;51.20;;;;;;5018923;28;20018;-63
2023/02/02 04:17:35;;;;;;;0.73;0.43;;;18.90;51.20;;;;;;5022649;28;20393;-62
2023/02/02 04:20:05;;;;;;;0.68;0.40;;;18.90;51.20;;;;;;5019848;28;20029;-63
2023/02/02 04:22:31;;;;;;;;;;;18.90;51.20;;;;;;5017987;28;20061;-62
2023/02/02 04:24:57;;;;;;;0.63;0.50;;;18.90;51.20;;;;;;5018668;28;19909;-63
2023/02/02 04:27:22;;;;;;;0.80;0.50;;;18.80;51.20;;;;;;5022112;28;20496;-62
2023/02/02 04:29:48;;;;;;;1.38;0.60;;;18.80;51.20;;;;;;5017891;28;20030;-63
2023/02/02 04:32:15;;;;;;;1.15;0.50;;;18.80;51.20;;;;;;5016701;28;20116;-65
2023/02/02 04:34:42;;;;;;;1.05;0.63;;;18.80;51.20;;;;;;5019998;28;20567;-65
2023/02/02 04:37:08;;;;;;;0.68;0.45;;;18.80;51.20;;;;;;5019224;28;20443;-63
2023/02/02 04:39:33;;;;;;;0.75;0.40;;;18.80;51.30;;;;;;5016882;28;20113;-63
2023/02/02 04:41:59;;;;;;;0.70;0.50;;;18.80;51.30;;;;;;5018891;28;20033;-64
2023/02/02 04:44:24;;;;;;;0.85;0.60;;;18.80;51.30;;;;;;5019397;28;20029;-64
2023/02/02 04:46:50;;;;;;;0.70;0.40;;;18.80;51.30;;;;;;5019515;28;20048;-64
2023/02/02 04:49:16;;;;;;;0.77;0.57;;;18.80;51.30;;;;;;5019164;28;20110;-63
2023/02/02 04:51:41;;;;;;;1.10;0.50;;;18.80;51.40;;;;;;5019221;28;20029;-64
2023/02/02 04:54:07;;;;;;;0.57;0.45;;;18.80;51.40;;;;;;5018432;28;20022;-63
2023/02/02 04:56:33;;;;;;;0.70;0.50;;;18.80;51.40;;;;;;5019420;28;20021;-63
2023/02/02 04:58:59;;;;;;;1.05;0.50;;;18.80;51.50;;;;;;5027514;28;20037;-62
2023/02/02 05:01:25;;;;;;;0.68;0.50;;;18.70;51.30;;;;;;5018659;28;20105;-63
2023/02/02 05:03:51;;;;;;;0.50;0.50;;;18.70;51.50;;;;;;5016912;28;20061;-63
2023/02/02 05:06:18;;;;;;;0.93;0.60;;;18.70;51.40;;;;;;5020143;28;20411;-63
2023/02/02 05:08:45;;;;;;;0.70;0.50;;;18.70;51.50;;;;;;5018786;28;20057;-63
2023/02/02 05:11:13;;;;;;;0.73;0.50;;;18.70;51.40;;;;;;5017648;28;20407;-63
2023/02/02 05:13:39;;;;;;;0.53;0.40;;;18.70;51.50;;;;;;5017147;28;20037;-62
2023/02/02 05:16:06;;;;;;;0.75;0.50;;;18.70;51.50;;;;;;5019759;28;20269;-63
2023/02/02 05:18:32;;;;;;;0.77;0.57;;;18.70;51.40;;;;;;5021239;28;20033;-63
2023/02/02 05:21:01;;;;;;;0.85;0.50;;;18.70;51.40;;;;;;5022045;28;20160;-62
2023/02/02 05:23:28;;;;;;;0.93;0.50;;;18.70;51.40;;;;;;5022035;28;20041;-64
2023/02/02 05:25:54;;;;;;;0.70;0.50;;;18.70;51.50;;;;;;5018009;28;20045;-64
2023/02/02 05:28:21;;;;;;;0.63;0.50;;;18.70;51.60;;;;;;5014898;28;20026;-64
2023/02/02 05:30:47;;;;;;;0.93;0.60;;;18.70;51.80;;;;;;5018579;28;20037;-63
2023/02/02 05:33:13;;;;;;;1.10;0.70;;;18.70;51.90;;;;;;5019010;28;20492;-63
2023/02/02 05:35:39;;;;;;;1.13;0.55;;;18.70;52.00;;;;;;5014049;28;20073;-63
2023/02/02 05:38:04;;;;;;;0.82;0.50;;;18.70;52.10;;;;;;5017631;28;20025;-64
2023/02/02 05:40:30;;;;;;;1.35;0.70;;;18.70;52.10;;;;;;5016877;28;20026;-64
2023/02/02 05:42:56;;;;;;;0.70;0.50;;;18.70;52.20;;;;;;5020019;28;20044;-63
2023/02/02 05:45:22;;;;;;;0.70;0.50;;;18.70;52.30;;;;;;5016640;28;20033;-64
2023/02/02 05:47:47;;;;;;;0.60;0.45;;;18.70;52.30;;;;;;5017904;28;20099;-64
2023/02/02 05:50:13;;;;;;;0.80;0.52;;;18.70;52.30;;;;;;5018368;28;20480;-65
2023/02/02 05:52:40;;;;;;;0.65;0.40;;;18.80;52.40;;;;;;5018372;28;20032;-63
2023/02/02 05:55:06;;;;;;;1.77;0.63;;;18.70;52.40;;;;;;5020913;28;20030;-63
2023/02/02 05:57:31;;;;;;;0.47;0.40;;;18.70;52.40;;;;;;5018407;28;20076;-63
2023/02/02 05:59:57;;;;;;;0.90;0.40;;;18.70;52.50;;;;;;5020185;28;20381;-65
2023/02/02 06:02:23;;;;;;;0.95;0.43;;;18.70;52.30;;;;;;5037761;28;20024;-63
2023/02/02 06:04:48;;;;;;;0.80;0.60;;;18.70;52.30;;;;;;5017291;28;20050;-64
2023/02/02 06:07:14;;;;;;;0.57;0.40;;;18.70;52.20;;;;;;5014587;28;20022;-63
2023/02/02 06:09:39;;;;;;;0.80;0.52;;;18.70;52.30;;;;;;5017628;28;20040;-63
2023/02/02 06:12:10;;;;;;;1.27;0.63;;;18.70;52.30;;;;;;5021188;28;20050;-64
2023/02/02 06:14:36;;;;;;;1.33;0.50;;;18.70;52.30;;;;;;5019707;28;20026;-63
2023/02/02 06:17:02;;;;;;;0.85;0.60;;;18.70;52.30;;;;;;5019848;28;20153;-63
2023/02/02 06:19:27;;;;;;;2.72;0.98;;;18.70;52.30;;;;;;5021990;28;20112;-64
2023/02/02 06:21:53;;;;;;;1.08;0.63;;;18.70;52.30;;;;;;5022528;28;20029;-64
2023/02/02 06:24:18;;;;;;;1.00;0.50;;;18.70;52.40;;;;;;5019949;28;20034;-63
2023/02/02 06:26:44;;;;;;;0.63;0.40;;;18.70;52.40;;;;;;5023071;28;20034;-64
2023/02/02 06:29:11;;;;;;;1.17;0.65;;;18.80;52.60;;;;;;5021351;28;20061;-64
2023/02/02 06:31:37;;;;;;;1.60;0.60;;;18.80;52.60;;;;;;5021756;28;20477;-63
2023/02/02 06:34:03;;;;;;;1.38;0.80;;;18.80;52.70;;;;;;5024363;28;20035;-64
2023/02/02 06:36:28;;;;;;;1.60;0.73;;;18.80;52.70;;;;;;5023161;28;20053;-65
2023/02/02 06:38:56;;;;;;;1.67;0.70;;;18.80;52.70;;;;;;5021238;28;20033;-63
2023/02/02 06:41:22;;;;;;;1.80;0.68;;;18.80;52.70;;;;;;5021700;28;20045;-64
2023/02/02 06:43:48;;;;;;;1.17;0.63;;;18.80;52.70;;;;;;5022182;28;20489;-64
2023/02/02 06:46:14;;;;;;;2.13;0.80;;;18.80;52.70;;;;;;5023235;28;20503;-65
2023/02/02 06:48:40;;;;;;;2.00;0.80;;;18.80;52.70;;;;;;5019697;28;20036;-64
2023/02/02 06:51:06;;;;;;;1.50;0.63;;;18.80;52.70;;;;;;5024802;28;20059;-64
2023/02/02 06:53:32;;;;;;;2.15;0.80;;;18.80;52.70;;;;;;5020797;28;20040;-65
2023/02/02 06:56:00;;;;;;;1.02;0.60;;;18.80;52.70;;;;;;5020325;28;20025;-66
2023/02/02 06:58:26;;;;;;;1.50;0.70;;;18.80;52.70;;;;;;5019573;28;20018;-65
2023/02/02 07:00:52;;;;;;;1.42;0.70;;;18.80;52.70;;;;;;5021375;28;20078;-65
2023/02/02 07:03:23;;;;;;;2.05;0.60;;;18.90;53.30;;;;;;5022712;28;20025;-64
2023/02/02 07:05:48;;;;;;;1.75;0.60;;;18.90;53.00;;;;;;5016739;28;20033;-64
2023/02/02 07:08:14;;;;;;;1.73;0.90;;;19.00;52.80;;;;;;5020106;28;20083;-64
2023/02/02 07:10:40;;;;;;;0.93;0.60;;;19.20;52.60;;;;;;5021406;28;20113;-64
2023/02/02 07:13:06;;;;;;;1.48;0.75;;;19.20;52.30;;;;;;5020448;28;20084;-64
2023/02/02 07:15:37;;;;;;;1.40;0.70;;;19.40;53.00;;;;;;5020019;28;20480;-64
2023/02/02 07:18:02;;;;;;;2.92;0.90;;;19.50;53.20;;;;;;5019723;28;20022;-65
2023/02/02 07:20:28;;;;;;;2.05;0.70;;;19.70;53.30;;;;;;5021798;28;20105;-65
2023/02/02 07:22:53;;;;;;;2.10;0.95;;;19.90;53.10;;;;;;5021723;28;20109;-65
2023/02/02 07:25:19;;;;;;;2.47;0.60;;;20.10;53.10;;;;;;5021528;28;20083;-65
2023/02/02 07:27:46;;;;;;;2.67;0.90;;;20.20;52.70;;;;;;5020105;28;20472;-64
2023/02/02 07:30:13;;;;;;;0.73;0.47;;;20.40;53.00;;;;;;5019831;28;20028;-65
2023/02/02 07:32:38;;;;;;;0.90;0.60;;;20.50;53.00;;;;;;5019079;28;20101;-65
2023/02/02 07:35:04;;;;;;;2.25;0.60;;;20.40;52.80;;;;;;5019995;28;20109;-65
2023/02/02 07:37:30;;;;;;;0.70;0.40;;;20.40;52.90;;;;;;5021260;28;20033;-64
2023/02/02 07:39:56;;;;;;;1.58;0.60;;;20.30;53.10;;;;;;5017348;28;20471;-63
2023/02/02 07:42:21;;;;;;;2.40;0.63;;;20.30;53.50;;;;;;5019682;28;20056;-64
2023/02/02 07:44:47;;;;;;;1.13;0.57;;;20.50;53.70;;;;;;5021322;28;20083;-64
2023/02/02 07:47:12;;;;;;;1.05;0.57;;;20.80;53.00;;;;;;5018231;28;20042;-64
2023/02/02 07:49:38;;;;;;;2.53;0.73;;;20.80;51.70;;;;;;5020027;28;20030;-65
2023/02/02 07:52:04;;;;;;;1.67;0.70;;;20.70;51.20;;;;;;5019545;28;20493;-63
2023/02/02 07:54:30;;;;;;;0.88;0.50;;;20.70;51.10;;;;;;5018420;28;20108;-64
2023/02/02 07:56:56;;;;;;;1.05;0.60;;;20.70;51.20;;;;;;5021842;28;20021;-63
2023/02/02 07:59:22;;;;;;;1.13;0.68;;;20.60;51.30;;;;;;5019826;28;20036;-63
2023/02/02 08:01:48;;;;;;;1.10;0.60;;;20.60;51.50;;;;;;5015355;28;20029;-65
2023/02/02 08:04:14;;;;;;;0.80;0.60;;;20.70;52.10;;;;;;5018877;28;20460;-65
2023/02/02 08:06:40;;;;;;;1.17;0.60;;;20.70;52.30;;;;;;5020696;28;20025;-65
2023/02/02 08:09:07;;;;;;;1.15;0.50;;;20.70;52.10;;;;;;5017549;28;20037;-62
2023/02/02 08:11:34;;;;;;;1.15;0.70;;;20.80;52.90;;;;;;5022440;28;20028;-64
2023/02/02 08:14:02;;;;;;;1.45;0.68;;;20.80;52.40;;;;;;5020351;28;20053;-64
2023/02/02 08:16:30;;;;;;;0.77;0.60;;;20.80;52.70;;;;;;5016416;28;20021;-64
2023/02/02 08:18:56;;;;;;;0.98;0.50;;;20.80;53.10;;;;;;5019154;28;20033;-63
2023/02/02 08:21:21;;;;;;;2.22;0.60;;;20.80;53.00;;;;;;5016036;28;20026;-63
2023/02/02 08:23:48;;;;;;;2.42;0.57;;;20.90;53.50;;;;;;5017312;28;20454;-65
2023/02/02 08:26:31;;;;;;;1.17;0.60;;;20.90;53.80;;;;;;5019010;28;20084;-64
2023/02/02 08:29:03;;;;;;;2.00;0.50;;;20.90;54.20;;;;;;5014507;28;20045;-63
2023/02/02 08:31:33;;;;;;;3.05;0.60;;;21.00;53.80;;;;;;5019604;28;20105;-64
2023/02/02 08:33:58;;;;;;;;;;;21.00;53.90;;;;;;5021664;28;20384;-64
2023/02/02 08:36:26;;;;;;;0.93;0.57;;;21.00;54.10;;;;;;5019159;28;19915;-63
2023/02/02 08:38:52;;;;;;;1.92;0.80;;;21.10;55.00;;;;;;5019239;28;20033;-64
2023/02/02 08:41:20;;;;;;;1.58;0.70;;;21.10;55.40;;;;;;5019564;28;20037;-63
2023/02/02 08:43:46;;;;;;;1.48;0.60;;;21.10;55.50;;;;;;5020516;28;20362;-63
2023/02/02 08:46:13;;;;;;;0.70;0.50;;;21.10;55.60;;;;;;5018039;28;20116;-63
2023/02/02 08:48:39;;;;;;;1.58;0.65;;;21.20;55.50;;;;;;5017132;28;20026;-64
2023/02/02 08:51:06;;;;;;;1.42;0.50;;;21.20;55.90;;;;;;5016813;28;20087;-64
2023/02/02 08:53:32;;;;;;;1.60;0.77;;;21.20;56.30;;;;;;5026360;28;20425;-64
2023/02/02 08:56:12;;;;;;;1.55;0.60;;;21.30;56.50;;;;;;5019794;28;20084;-63
2023/02/02 08:58:39;;;;;;;1.58;0.70;;;21.30;57.40;;;;;;5023675;28;20043;-63
2023/02/02 09:01:12;;;;;;;1.17;0.60;;;21.30;56.40;;;;;;5017066;28;20042;-64
2023/02/02 09:03:39;;;;;;;1.00;0.50;;;21.40;56.20;;;;;;5021575;28;20041;-63
2023/02/02 09:06:09;;;;;;;1.30;0.65;;;21.40;56.60;;;;;;5019871;28;20034;-64
2023/02/02 09:08:35;;;;;;;2.30;0.70;;;21.40;56.40;;;;;;5016661;28;20049;-64
2023/02/02 09:11:16;;;;;;;1.95;0.50;;;21.40;56.40;;;;;;5020110;28;20477;-63
2023/02/02 09:13:47;;;;;;;1.20;0.50;;;21.40;56.30;;;;;;5018907;28;20017;-63
2023/02/02 09:16:15;;;;;;;0.98;0.55;;;21.40;56.10;;;;;;5035979;28;20364;-64
2023/02/02 09:18:42;;;;;;;0.77;0.57;;;21.50;56.10;;;;;;5018435;28;20030;-63
2023/02/02 09:21:10;;;;;;;1.30;0.50;;;21.40;55.80;;;;;;5020017;28;20128;-63
2023/02/02 09:23:37;;;;;;;1.23;0.73;;;21.50;55.80;;;;;;5018262;28;20084;-64
2023/02/02 09:26:14;;;;;;;0.98;0.60;;;21.50;55.80;;;;;;5017463;28;20474;-64
2023/02/02 09:28:42;;;;;;;1.02;0.60;;;21.50;56.20;;;;;;5019187;28;20033;-63
2023/02/02 09:31:08;;;;;;;1.42;0.82;;;21.50;55.50;;;;;;5025918;28;20021;-64
2023/02/02 09:33:35;;;;;;;0.70;0.50;;;21.60;55.60;;;;;;5013831;28;20033;-64
2023/02/02 09:36:05;;;;;;;1.42;0.73;;;21.60;55.50;;;;;;5019804;28;20464;-63
2023/02/02 09:38:30;;;;;;;1.02;0.57;;;21.60;55.40;;;;;;5016015;28;20033;-64
2023/02/02 09:40:56;;;;;;;0.60;0.43;;;21.60;55.20;;;;;;5016731;28;20029;-63
2023/02/02 09:43:56;;;;;;;0.40;0.40;;;21.60;55.20;;;;;;5017147;28;20046;-63
2023/02/02 09:46:41;;;;;;;0.90;0.50;;;21.60;54.80;;;;;;5008165;28;20366;-63
2023/02/02 09:49:11;;;;;;;0.40;0.40;;;21.60;54.50;;;;;;5013840;28;20041;-62
2023/02/02 09:51:48;;;;;;;0.82;0.57;;;21.60;54.30;;;;;;5021909;28;20034;-63
2023/02/02 09:54:42;;;;;;;0.98;0.50;;;21.60;54.10;;;;;;5021092;28;20026;-64
2023/02/02 09:57:30;;;;;;;1.30;0.60;;;21.60;53.80;;;;;;5016455;28;20030;-64
2023/02/02 09:59:56;;;;;;;1.10;0.60;;;21.60;52.70;;;;;;5022376;28;20026;-63
2023/02/02 10:02:29;;;;;;;0.98;0.55;;;21.60;51.60;;;;;;5022940;28;20112;-63
2023/02/02 10:05:07;;;;;;;1.73;0.80;;;21.60;50.70;;;;;;5019065;28;20026;-63
2023/02/02 10:07:38;;;;;;;1.90;0.70;;;21.60;50.70;;;;;;5021834;28;20026;-64
2023/02/02 10:10:18;;;;;;;1.00;0.50;;;21.60;50.70;;;;;;5021331;28;20052;-63
2023/02/02 10:13:32;;;;;;;1.58;0.90;;;21.70;50.30;;;;;;5022926;28;20495;-64
2023/02/02 10:16:16;;;;;;;1.30;0.80;;;21.80;49.70;;;;;;5000902;28;20115;-63
2023/02/02 10:18:48;;;;;;;1.42;0.70;;;21.90;49.60;;;;;;5021466;28;20033;-63
2023/02/02 10:21:23;;;;;;;1.13;0.70;;;22.10;49.40;;;;;;5022490;28;20489;-64
2023/02/02 10:23:49;;;;;;;1.70;0.70;;;22.10;49.00;;;;;;5023005;28;20026;-64
2023/02/02 10:26:33;;;;;;;1.63;0.80;;;22.20;48.90;;;;;;5020990;28;20036;-64
2023/02/02 10:29:08;;;;;;;2.33;0.90;;;22.40;48.80;;;;;;5022005;28;20033;-63
2023/02/02 10:31:57;;;;;;;2.45;1.00;;;22.50;48.60;;;;;;5021048;28;20404;-64
2023/02/02 10:34:26;;;;;;;1.83;0.75;;;22.60;48.20;;;;;;5025018;28;20167;-63
2023/02/02 10:37:29;;;;;;;1.27;0.70;;;22.70;48.00;;;;;;5019147;28;20029;-65
2023/02/02 10:40:14;;;;;;;1.42;0.63;;;22.70;47.70;;;;;;5023257;28;20365;-64
2023/02/02 10:43:44;;;;;;;3.08;0.90;;;22.80;47.20;;;;;;5022473;28;20067;-64
2023/02/02 10:45:34;;;;;;;1.88;0.70;;;22.80;47.10;;;;;;5022234;28;20108;-63
2023/02/02 10:48:00;;;;;;;0.93;0.60;;;22.90;47.20;;;;;;5022481;28;20069;-64
2023/02/02 10:50:26;;;;;;;1.58;0.90;;;22.90;47.20;;;;;;5020953;28;20060;-64
2023/02/02 10:52:55;;;;;;;1.50;0.80;;;22.80;47.10;;;;;;5020794;28;20038;-63
2023/02/02 10:55:27;;;;;;;1.20;0.80;;;22.80;47.30;;;;;;5022204;28;20427;-63
2023/02/02 10:58:02;;;;;;;1.58;0.77;;;22.80;47.30;;;;;;5024223;28;20061;-63
2023/02/02 11:00:41;;;;;;;2.40;0.90;;;22.90;47.20;;;;;;5017193;28;20399;-63
2023/02/02 11:03:09;;;;;;;2.70;0.80;;;23.00;47.30;;;;;;5021865;28;20025;-63
2023/02/02 11:08:26;;;;;;;2.00;0.93;;;23.10;46.70;;;;;;5021890;28;20041;-64
2023/02/02 11:10:54;;;;;;;1.88;0.80;;;23.00;46.60;;;;;;5020757;28;20461;-63
2023/02/02 11:13:44;;;;;;;1.40;0.60;;;23.00;46.80;;;;;;5021221;28;20410;-63
2023/02/02 11:16:15;;;;;;;1.40;0.80;;;23.00;46.70;;;;;;5019265;28;20054;-64
2023/02/02 11:18:42;;;;;;;1.15;0.63;;;23.00;46.80;;;;;;5019309;28;20102;-63
2023/02/02 11:21:27;;;;;;;0.98;0.70;;;23.00;46.70;;;;;;5019062;28;20053;-65
2023/02/02 11:24:19;;;;;;;1.00;0.60;;;22.90;46.70;;;;;;5020725;28;20029;-65
2023/02/02 11:26:49;;;;;;;1.67;0.80;;;23.00;46.70;;;;;;5035494;28;20030;-62
2023/02/02 11:29:20;;;;;;;1.05;0.77;;;23.00;46.70;;;;;;5021016;28;20028;-64
2023/02/02 11:31:46;;;;;;;1.48;0.70;;;22.90;46.50;;;;;;5017449;28;20145;-66
2023/02/02 11:34:18;;;;;;;0.82;0.57;;;22.90;46.60;;;;;;5022260;28;20389;-62
2023/02/02 11:37:12;;;;;;;1.25;0.70;;;22.90;46.60;;;;;;5018994;28;20072;-65
2023/02/02 11:39:42;;;;;;;1.05;0.60;;;22.90;46.50;;;;;;5022205;28;20030;-65
2023/02/02 11:42:17;;;;;;;2.10;0.80;;;22.80;46.40;;;;;;5021039;28;20429;-62
2023/02/02 11:44:49;;;;;;;1.48;0.90;;;22.80;46.60;;;;;;5020660;28;20117;-65
2023/02/02 11:47:28;;;;;;;2.33;0.75;;;22.80;46.70;;;;;;5022153;28;20457;-65
2023/02/02 11:49:56;;;;;;;1.65;0.90;;;22.80;46.70;;;;;;5022409;28;20738;-62
2023/02/02 11:52:24;;;;;;;2.28;0.60;;;22.80;46.60;;;;;;5020128;28;20112;-65
2023/02/02 11:54:56;;;;;;;0.95;0.60;;;22.80;46.60;;;;;;5019205;28;20018;-62
2023/02/02 11:57:25;;;;;;;0.93;0.55;;;22.80;46.70;;;;;;5034209;28;20146;-65
2023/02/02 12:00:11;;;;;;;0.87;0.50;;;22.70;46.90;;;;;;5019876;28;20030;-65
2023/02/02 12:02:43;;;;;;;1.08;0.50;;;22.70;46.90;;;;;;5016036;28;20835;-63
2023/02/02 12:05:09;;;;;;;1.20;0.50;;;22.70;47.10;;;;;;5020019;28;20095;-64
2023/02/02 12:07:36;;;;;;;0.93;0.50;;;22.60;47.10;;;;;;5019561;28;20030;-66
2023/02/02 12:10:25;;;;;;;0.80;0.52;;;22.60;47.20;;;;;;5020269;28;20025;-64
2023/02/02 12:13:06;;;;;;;0.98;0.52;;;22.60;47.10;;;;;;5032298;28;20030;-65
2023/02/02 12:15:49;;;;;;;1.15;0.70;;;22.60;47.20;;;;;;5019658;28;20385;-65
2023/02/02 12:18:30;;;;;;;2.72;0.63;;;22.50;47.30;;;;;;5020948;28;20155;-66
2023/02/02 12:21:04;;;;;;;1.40;0.70;;;22.60;47.20;;;;;;5017601;28;20034;-64
2023/02/02 12:23:33;;;;;;;1.13;0.70;;;22.60;47.00;;;;;;5023093;28;20056;-65
2023/02/02 12:26:13;;;;;;;2.53;0.80;;;22.60;47.10;;;;;;5019918;28;20040;-65
2023/02/02 12:28:50;;;;;;;1.30;0.70;;;22.50;46.90;;;;;;5018743;28;20779;-64
2023/02/02 12:31:19;;;;;;;2.03;0.80;;;22.50;47.00;;;;;;5020526;28;20021;-66
2023/02/02 12:34:00;;;;;;;1.95;0.70;;;22.50;47.00;;;;;;5020609;28;20026;-65
2023/02/02 12:36:40;;;;;;;1.75;0.80;;;22.50;47.10;;;;;;5015538;28;20385;-64
2023/02/02 12:39:29;;;;;;;2.05;0.90;;;22.50;47.10;;;;;;5020238;28;20029;-64
2023/02/02 12:42:04;;;;;;;1.27;0.65;;;22.40;47.10;;;;;;5017754;28;20044;-64
2023/02/02 12:44:51;;;;;;;2.13;1.05;;;22.40;47.20;;;;;;5018961;28;20092;-66
2023/02/02 12:47:31;;;;;;;4.40;1.30;;;22.40;47.30;;;;;;5018076;28;20504;-65
2023/02/02 12:50:09;;;;;;;2.88;1.10;;;22.40;47.40;;;;;;5019441;28;20064;-65
2023/02/02 12:52:47;;;;;;;3.92;1.38;;;22.40;47.30;;;;;;5023727;28;20473;-64
2023/02/02 12:55:43;;;;;;;3.03;1.20;;;22.30;47.30;;;;;;5018987;28;20029;-66
2023/02/02 12:58:16;;;;;;;3.35;1.30;;;22.30;47.40;;;;;;5017455;28;20088;-65
2023/02/02 13:01:17;;;;;;;2.90;1.10;;;22.30;47.40;;;;;;5019404;28;20030;-66
2023/02/02 13:04:10;;;;;;;4.20;1.50;;;22.30;47.40;;;;;;5020007;28;20048;-64
2023/02/02 13:06:55;;;;;;;3.03;1.25;;;22.30;47.50;;;;;;5019701;28;20390;-65
2023/02/02 13:09:47;;;;;;;3.90;1.40;;;22.30;47.60;;;;;;5016934;28;20018;-64
2023/02/02 13:12:15;;;;;;;3.58;1.23;;;22.30;47.60;;;;;;5016939;28;20025;-63
2023/02/02 13:14:48;;;;;;;4.05;1.30;;;22.30;47.60;;;;;;5020550;28;20026;-64
2023/02/02 13:17:21;;;;;;;4.47;1.10;;;22.30;47.60;;;;;;5035032;28;20069;-64